createdAt,value
2022-08-14T00:01:12.403Z,18.23
2022-08-14T00:04:55.294Z,18.10
2022-08-14T00:08:45.098Z,18.05
2022-08-14T00:12:33.602Z,17.92
2022-08-14T00:16:41.561Z,17.82
2022-08-14T00:20:35.794Z,17.80
2022-08-14T00:24:29.040Z,17.83
2022-08-14T00:28:17.757Z,17.80
2022-08-14T00:32:02.483Z,17.78
2022-08-14T00:36:35.716Z,17.77
2022-08-14T00:40:11.114Z,17.69
2022-08-14T00:44:10.581Z,17.58
2022-08-14T00:47:54.721Z,17.49
2022-08-14T00:51:39.638Z,17.47
2022-08-14T00:55:24.893Z,17.46
2022-08-14T00:59:07.645Z,17.48
2022-08-14T01:02:53.859Z,17.56
2022-08-14T01:06:38.166Z,17.59
2022-08-14T01:10:22.941Z,17.55
2022-08-14T01:14:25.607Z,17.41
2022-08-14T01:18:27.175Z,17.31
2022-08-14T01:22:12.715Z,17.14
2022-08-14T01:25:56.711Z,17.01
2022-08-14T01:30:00.608Z,16.84
2022-08-14T01:33:59.507Z,16.82
2022-08-14T01:37:54.629Z,16.78
2022-08-14T01:41:40.152Z,16.69
2022-08-14T01:45:25.433Z,16.62
2022-08-14T01:49:10.159Z,16.59
2022-08-14T01:52:59.174Z,16.45
2022-08-14T01:56:44.735Z,16.34
2022-08-14T02:00:27.941Z,16.23
2022-08-14T02:04:20.572Z,16.17
2022-08-14T02:08:16.128Z,16.28
2022-08-14T02:12:06.757Z,16.48
2022-08-14T02:15:51.905Z,16.62
2022-08-14T02:19:35.726Z,16.65
2022-08-14T02:23:23.954Z,16.51
2022-08-14T02:28:23.888Z,16.27
2022-08-14T02:31:18.115Z,16.21
2022-08-14T02:35:18.935Z,16.31
2022-08-14T02:39:03.588Z,16.38
2022-08-14T02:42:54.023Z,16.30
2022-08-14T02:46:37.426Z,16.24
2022-08-14T02:50:26.969Z,16.27
2022-08-14T02:54:13.144Z,16.33
2022-08-14T02:58:02.969Z,16.42
2022-08-14T03:01:50.783Z,16.40
2022-08-14T03:05:41.202Z,16.28
2022-08-14T03:09:42.368Z,16.27
2022-08-14T03:13:35.699Z,16.22
2022-08-14T03:17:18.522Z,16.15
2022-08-14T03:21:07.782Z,16.02
2022-08-14T03:24:52.197Z,15.98
2022-08-14T03:28:36.873Z,16.05
2022-08-14T03:32:30.417Z,16.11
2022-08-14T03:37:28.997Z,16.19
2022-08-14T03:40:20.524Z,16.27
2022-08-14T03:45:18.969Z,16.33
2022-08-14T03:48:30.314Z,16.29
2022-08-14T03:52:37.855Z,16.25
2022-08-14T03:56:21.406Z,16.27
2022-08-14T04:00:07.427Z,16.26
2022-08-14T04:04:02.495Z,16.31
2022-08-14T04:07:49.822Z,16.31
2022-08-14T04:11:51.045Z,16.19
2022-08-14T04:15:56.592Z,16.02
2022-08-14T04:19:39.996Z,15.75
2022-08-14T04:23:29.394Z,15.55
2022-08-14T04:27:17.265Z,15.57
2022-08-14T04:31:00.068Z,15.64
2022-08-14T04:34:42.810Z,15.73
2022-08-14T04:38:52.475Z,15.84
2022-08-14T04:42:55.243Z,15.84
2022-08-14T04:46:56.110Z,15.80
2022-08-14T04:50:44.417Z,15.83
2022-08-14T04:54:28.191Z,15.88
2022-08-14T04:58:21.939Z,15.97
2022-08-14T05:02:16.570Z,15.98
2022-08-14T05:06:03.109Z,16.03
2022-08-14T05:09:47.827Z,16.13
2022-08-14T05:13:42.304Z,16.24
2022-08-14T05:17:43.997Z,16.33
2022-08-14T05:21:59.903Z,16.44
2022-08-14T05:25:33.543Z,16.62
2022-08-14T05:29:18.454Z,16.71
2022-08-14T05:33:01.501Z,16.77
2022-08-14T05:36:50.643Z,16.84
2022-08-14T05:40:45.544Z,16.92
2022-08-14T05:44:30.962Z,17.14
2022-08-14T05:48:32.772Z,17.32
2022-08-14T05:52:18.142Z,17.45
2022-08-14T05:56:01.272Z,17.55
2022-08-14T05:59:45.369Z,17.61
2022-08-14T06:03:28.224Z,17.70
2022-08-14T06:07:11.816Z,17.82
2022-08-14T06:10:56.977Z,17.93
2022-08-14T06:14:39.799Z,17.97
2022-08-14T06:18:25.170Z,18.06
2022-08-14T06:22:08.074Z,18.16
2022-08-14T06:25:52.751Z,18.26
2022-08-14T06:29:37.463Z,18.36
2022-08-14T06:33:21.790Z,18.47
2022-08-14T06:37:06.895Z,18.56
2022-08-14T06:40:53.307Z,18.67
2022-08-14T06:44:36.614Z,18.78
2022-08-14T06:48:21.725Z,18.91
2022-08-14T06:52:06.820Z,19.06
2022-08-14T06:55:58.263Z,19.22
2022-08-14T06:59:43.750Z,19.35
2022-08-14T07:03:40.385Z,19.47
2022-08-14T07:07:28.695Z,19.63
2022-08-14T07:11:12.955Z,19.77
2022-08-14T07:15:00.953Z,19.86
2022-08-14T07:18:45.704Z,19.94
2022-08-14T07:22:56.340Z,20.07
2022-08-14T07:26:38.812Z,20.19
2022-08-14T07:30:33.944Z,20.33
2022-08-14T07:34:35.944Z,20.48
2022-08-14T07:38:22.918Z,20.62
2022-08-14T07:42:06.170Z,20.75
2022-08-14T07:45:50.863Z,20.89
2022-08-14T07:49:37.105Z,21.02
2022-08-14T07:53:21.741Z,21.16
2022-08-14T07:57:12.281Z,21.25
2022-08-14T08:00:56.962Z,21.32
2022-08-14T08:04:44.909Z,21.44
2022-08-14T08:08:31.390Z,21.54
2022-08-14T08:12:15.851Z,21.64
2022-08-14T08:15:59.022Z,21.73
2022-08-14T08:19:41.826Z,21.83
2022-08-14T08:23:34.566Z,21.95
2022-08-14T08:27:24.415Z,22.07
2022-08-14T08:31:08.410Z,22.23
2022-08-14T08:34:51.503Z,22.35
2022-08-14T08:39:17.705Z,22.44
2022-08-14T08:42:41.422Z,22.51
2022-08-14T08:46:27.468Z,22.56
2022-08-14T08:50:23.302Z,22.65
2022-08-14T08:54:19.709Z,22.72
2022-08-14T08:58:15.942Z,22.78
2022-08-14T09:02:01.050Z,22.85
2022-08-14T09:05:53.973Z,22.93
2022-08-14T09:09:54.533Z,22.98
2022-08-14T09:13:42.974Z,23.04
2022-08-14T09:17:26.348Z,23.11
2022-08-14T09:21:09.408Z,23.17
2022-08-14T09:24:55.276Z,23.22
2022-08-14T09:28:38.112Z,23.27
2022-08-14T09:33:09.312Z,23.31
2022-08-14T09:36:47.392Z,23.37
2022-08-14T09:40:40.628Z,23.40
2022-08-14T09:44:34.553Z,23.45
2022-08-14T09:48:19.976Z,23.48
2022-08-14T09:52:32.863Z,23.50
2022-08-14T09:56:24.366Z,23.57
2022-08-14T10:00:29.288Z,23.62
2022-08-14T10:04:33.120Z,23.65
2022-08-14T10:08:26.567Z,23.74
2022-08-14T10:12:16.438Z,23.78
2022-08-14T10:16:01.846Z,23.81
2022-08-14T10:19:50.251Z,23.86
2022-08-14T10:23:43.947Z,23.89
2022-08-14T10:27:27.289Z,23.88
2022-08-14T10:31:25.720Z,23.98
2022-08-14T10:35:14.167Z,24.03
2022-08-14T10:38:59.213Z,24.05
2022-08-14T10:42:43.791Z,24.06
2022-08-14T10:47:40.874Z,24.04
2022-08-14T10:50:34.477Z,24.26
2022-08-14T10:54:36.170Z,24.24
2022-08-14T10:58:34.173Z,24.27
2022-08-14T11:02:45.028Z,24.23
2022-08-14T11:06:27.257Z,24.22
2022-08-14T11:10:12.331Z,24.21
2022-08-14T11:13:57.408Z,24.23
2022-08-14T11:17:40.166Z,24.35
2022-08-14T11:21:34.242Z,24.59
2022-08-14T11:25:17.854Z,24.83
2022-08-14T11:29:01.666Z,25.02
2022-08-14T11:32:48.636Z,25.23
2022-08-14T11:37:02.467Z,25.39
2022-08-14T11:40:37.559Z,25.48
2022-08-14T11:44:21.065Z,25.53
2022-08-14T11:49:03.835Z,25.65
2022-08-14T11:52:40.290Z,25.83
2022-08-14T11:56:25.727Z,26.00
2022-08-14T12:00:19.942Z,26.20
2022-08-14T12:04:32.603Z,26.34
2022-08-14T12:08:24.306Z,26.39
2022-08-14T12:12:16.246Z,26.51
2022-08-14T12:16:22.787Z,26.72
2022-08-14T12:20:09.353Z,26.87
2022-08-14T12:24:06.057Z,27.01
2022-08-14T12:27:54.711Z,27.07
2022-08-14T12:31:44.481Z,27.18
2022-08-14T12:35:40.345Z,27.29
2022-08-14T12:39:24.536Z,27.42
2022-08-14T12:43:08.941Z,27.55
2022-08-14T12:47:07.323Z,27.57
2022-08-14T12:50:52.253Z,27.65
2022-08-14T12:54:37.042Z,27.79
2022-08-14T12:58:51.908Z,27.98
2022-08-14T13:02:39.347Z,28.11
2022-08-14T13:06:27.270Z,28.26
2022-08-14T13:10:47.316Z,28.45
2022-08-14T13:14:24.718Z,28.61
2022-08-14T13:18:13.327Z,28.79
2022-08-14T13:22:09.924Z,28.96
2022-08-14T13:25:56.026Z,29.15
2022-08-14T13:29:46.591Z,29.37
2022-08-14T13:33:31.662Z,29.56
2022-08-14T13:37:17.235Z,29.79
2022-08-14T13:41:01.711Z,29.94
2022-08-14T13:44:46.070Z,30.11
2022-08-14T13:48:33.227Z,30.23
2022-08-14T13:52:51.628Z,30.44
2022-08-14T13:56:36.623Z,30.71
2022-08-14T14:00:21.714Z,30.94
2022-08-14T14:04:19.642Z,31.20
2022-08-14T14:08:02.905Z,31.45
2022-08-14T14:11:47.955Z,31.69
2022-08-14T14:15:57.971Z,32.02
2022-08-14T14:19:43.305Z,32.35
2022-08-14T14:23:27.711Z,32.59
2022-08-14T14:27:39.586Z,32.75
2022-08-14T14:31:29.674Z,32.87
2022-08-14T14:35:15.415Z,33.10
2022-08-14T14:39:01.157Z,33.47
2022-08-14T14:42:48.828Z,33.84
2022-08-14T14:46:37.840Z,34.01
2022-08-14T14:50:25.058Z,34.35
2022-08-14T14:54:08.803Z,34.76
2022-08-14T14:57:57.286Z,35.09
2022-08-14T15:01:40.248Z,35.35
2022-08-14T15:05:24.730Z,35.68
2022-08-14T15:09:11.062Z,36.25
2022-08-14T15:13:04.316Z,37.42
2022-08-14T15:16:47.406Z,38.00
2022-08-14T15:20:33.429Z,38.52
2022-08-14T15:24:20.953Z,39.70
2022-08-14T15:28:13.057Z,40.73
2022-08-14T15:32:04.225Z,41.22
2022-08-14T15:35:52.042Z,41.37
2022-08-14T15:39:45.681Z,41.30
2022-08-14T15:43:31.319Z,41.00
2022-08-14T15:47:22.679Z,40.11
2022-08-14T15:51:11.339Z,39.70
2022-08-14T15:54:55.550Z,39.04
2022-08-14T15:58:40.389Z,38.44
2022-08-14T16:02:24.580Z,38.42
2022-08-14T16:06:15.591Z,38.35
2022-08-14T16:10:27.754Z,38.24
2022-08-14T16:14:06.762Z,38.19
2022-08-14T16:17:50.179Z,37.96
2022-08-14T16:21:33.537Z,37.61
2022-08-14T16:25:34.804Z,37.19
2022-08-14T16:29:20.536Z,36.57
2022-08-14T16:33:06.813Z,36.15
2022-08-14T16:36:50.810Z,35.52
2022-08-14T16:40:42.972Z,35.00
2022-08-14T16:44:41.028Z,34.51
2022-08-14T16:48:55.192Z,34.02
2022-08-14T16:52:44.373Z,33.16
2022-08-14T16:56:36.985Z,32.67
2022-08-14T17:00:29.848Z,32.29
2022-08-14T17:04:24.706Z,32.15
2022-08-14T17:08:41.676Z,32.08
2022-08-14T17:12:33.651Z,31.90
2022-08-14T17:16:24.276Z,31.72
2022-08-14T17:20:54.695Z,31.54
2022-08-14T17:24:57.230Z,31.26
2022-08-14T17:28:52.622Z,30.89
2022-08-14T17:32:44.339Z,30.58
2022-08-14T17:36:30.602Z,30.27
2022-08-14T17:40:16.502Z,29.99
2022-08-14T17:44:11.636Z,29.63
2022-08-14T17:47:59.315Z,29.27
2022-08-14T17:52:03.747Z,28.95
2022-08-14T17:56:02.913Z,28.69
2022-08-14T17:59:48.347Z,28.42
2022-08-14T18:03:50.848Z,28.15
2022-08-14T18:07:59.763Z,27.90
2022-08-14T18:11:45.930Z,27.58
2022-08-14T18:15:36.882Z,27.35
2022-08-14T18:19:23.026Z,27.10
2022-08-14T18:23:12.825Z,26.93
2022-08-14T18:27:01.774Z,26.74
2022-08-14T18:30:58.265Z,26.57
2022-08-14T18:34:50.939Z,26.41
2022-08-14T18:38:55.092Z,26.25
2022-08-14T18:42:46.793Z,26.08
2022-08-14T18:46:59.781Z,25.93
2022-08-14T18:50:35.213Z,25.75
2022-08-14T18:54:33.042Z,25.57
2022-08-14T18:58:30.953Z,25.43
2022-08-14T19:02:42.946Z,25.32
2022-08-14T19:06:43.396Z,25.22
2022-08-14T19:10:37.253Z,25.10
2022-08-14T19:14:44.883Z,24.90
2022-08-14T19:18:38.540Z,24.74
2022-08-14T19:22:30.227Z,24.58
2022-08-14T19:26:36.040Z,24.46
2022-08-14T19:30:23.336Z,24.41
2022-08-14T19:34:07.022Z,24.33
2022-08-14T19:37:54.862Z,24.26
2022-08-14T19:41:40.663Z,24.24
2022-08-14T19:45:34.869Z,24.16
2022-08-14T19:49:23.200Z,24.09
2022-08-14T19:53:21.947Z,24.10
2022-08-14T19:57:05.230Z,24.04
2022-08-14T20:00:57.145Z,24.03
2022-08-14T20:04:47.268Z,24.02
2022-08-14T20:09:05.849Z,24.03
2022-08-14T20:12:58.243Z,23.95
2022-08-14T20:16:43.176Z,23.90
2022-08-14T20:20:32.092Z,23.86
2022-08-14T20:24:30.554Z,23.81
2022-08-14T20:28:30.072Z,23.77
2022-08-14T20:32:14.791Z,23.73
2022-08-14T20:35:57.614Z,23.73
2022-08-14T20:39:45.236Z,23.70
2022-08-14T20:43:59.642Z,23.67
2022-08-14T20:47:48.279Z,23.69
2022-08-14T20:51:47.486Z,23.71
2022-08-14T20:55:45.001Z,23.76
2022-08-14T20:59:30.355Z,23.81
2022-08-14T21:03:34.778Z,23.80
2022-08-14T21:07:25.644Z,23.76
2022-08-14T21:11:21.982Z,23.69
2022-08-14T21:15:11.084Z,23.63
2022-08-14T21:18:56.979Z,23.56
2022-08-14T21:22:44.992Z,23.42
2022-08-14T21:26:51.474Z,23.22
2022-08-14T21:30:51.241Z,23.05
2022-08-14T21:34:37.465Z,22.84
2022-08-14T21:38:20.353Z,22.78
2022-08-14T21:42:14.136Z,22.79
2022-08-14T21:46:00.299Z,22.78
2022-08-14T21:49:48.121Z,22.72
2022-08-14T21:53:32.827Z,22.75
2022-08-14T21:57:17.294Z,22.66
2022-08-14T22:01:00.194Z,22.59
2022-08-14T22:04:45.985Z,22.49
2022-08-14T22:08:32.794Z,22.32
2022-08-14T22:12:47.190Z,22.20
2022-08-14T22:17:00.064Z,22.15
2022-08-14T22:20:29.945Z,22.04
2022-08-14T22:24:37.796Z,21.95
2022-08-14T22:28:20.931Z,21.87
2022-08-14T22:32:07.297Z,21.88
2022-08-14T22:35:56.165Z,21.78
2022-08-14T22:40:17.124Z,21.75
2022-08-14T22:43:42.405Z,21.68
2022-08-14T22:47:26.413Z,21.62
2022-08-14T22:51:26.096Z,21.60
2022-08-14T22:55:11.353Z,21.61
2022-08-14T22:58:54.549Z,21.59
2022-08-14T23:02:37.473Z,21.60
2022-08-14T23:07:02.515Z,21.55
2022-08-14T23:10:32.238Z,21.52
2022-08-14T23:14:23.776Z,21.54
2022-08-14T23:18:07.491Z,21.54
2022-08-14T23:21:56.055Z,21.57
2022-08-14T23:25:58.700Z,21.53
2022-08-14T23:29:43.552Z,21.53
2022-08-14T23:33:26.794Z,21.49
2022-08-14T23:37:09.628Z,21.50
2022-08-14T23:40:53.771Z,21.51
2022-08-14T23:44:39.180Z,21.48
2022-08-14T23:48:24.850Z,21.50
2022-08-14T23:52:51.575Z,21.49
2022-08-14T23:56:20.430Z,21.53
